createdAt,value
2023-08-14T00:00:21.370Z,96011.59
2023-08-14T00:01:22.990Z,96008.81
2023-08-14T00:02:24.932Z,96009.59
2023-08-14T00:03:26.750Z,96005.66
2023-08-14T00:04:28.427Z,96004.06
2023-08-14T00:05:30.086Z,95998.91
2023-08-14T00:06:31.653Z,96006.78
2023-08-14T00:07:33.309Z,95991.72
2023-08-14T00:08:34.929Z,95990.16
2023-08-14T00:09:36.557Z,95987.72
2023-08-14T00:10:38.161Z,95989.75
2023-08-14T00:11:39.808Z,95984.16
2023-08-14T00:12:42.020Z,95984.84
2023-08-14T00:13:55.429Z,95979.34
2023-08-14T00:14:57.052Z,95980.16
2023-08-14T00:15:58.676Z,95984.91
2023-08-14T00:17:01.138Z,95979.31
2023-08-14T00:18:02.808Z,95992.06
2023-08-14T00:19:04.660Z,95987.16
2023-08-14T00:20:06.751Z,95984.00
2023-08-14T00:21:08.326Z,95992.84
2023-08-14T00:22:09.916Z,95994.00
2023-08-14T00:23:11.626Z,95986.88
2023-08-14T00:24:13.695Z,95986.44
2023-08-14T00:25:15.306Z,95982.03
2023-08-14T00:26:18.472Z,95983.63
2023-08-14T00:27:20.067Z,95979.22
2023-08-14T00:28:21.648Z,95984.75
2023-08-14T00:29:23.221Z,95979.97
2023-08-14T00:30:25.042Z,95977.66
2023-08-14T00:31:26.622Z,95974.50
2023-08-14T00:32:28.263Z,95973.66
2023-08-14T00:33:30.078Z,95978.84
2023-08-14T00:34:31.704Z,95967.41
2023-08-14T00:35:33.358Z,95982.50
2023-08-14T00:36:35.013Z,95972.56
2023-08-14T00:37:46.303Z,95979.72
2023-08-14T00:38:48.005Z,95972.06
2023-08-14T00:39:49.817Z,95973.66
2023-08-14T00:40:53.954Z,95965.28
2023-08-14T00:41:55.586Z,95970.44
2023-08-14T00:42:57.163Z,95965.31
2023-08-14T00:43:58.737Z,95985.13
2023-08-14T00:45:01.270Z,95975.56
2023-08-14T00:46:03.729Z,95975.22
2023-08-14T00:47:06.046Z,95970.81
2023-08-14T00:48:07.628Z,95964.00
2023-08-14T00:49:09.391Z,95954.53
2023-08-14T00:50:11.728Z,95961.66
2023-08-14T00:51:13.407Z,95962.88
2023-08-14T00:52:15.310Z,95961.72
2023-08-14T00:53:18.736Z,95960.06
2023-08-14T00:54:20.338Z,95960.09
2023-08-14T00:55:23.728Z,95952.06
2023-08-14T00:56:25.652Z,95954.06
2023-08-14T00:57:27.941Z,95959.28
2023-08-14T00:58:29.457Z,95961.66
2023-08-14T00:59:33.316Z,95964.44
2023-08-14T01:00:36.694Z,95975.16
2023-08-14T01:01:39.277Z,95960.09
2023-08-14T01:02:41.922Z,95971.66
2023-08-14T01:03:43.703Z,95966.13
2023-08-14T01:04:45.508Z,95967.22
2023-08-14T01:05:47.180Z,95972.78
2023-08-14T01:06:49.088Z,95969.16
2023-08-14T01:07:50.780Z,95976.72
2023-08-14T01:08:52.853Z,95976.72
2023-08-14T01:09:55.163Z,95977.53
2023-08-14T01:11:02.606Z,95975.13
2023-08-14T01:12:44.211Z,95983.88
2023-08-14T01:13:57.459Z,95984.72
2023-08-14T01:15:03.331Z,95991.09
2023-08-14T01:16:11.236Z,95995.06
2023-08-14T01:17:15.296Z,95991.47
2023-08-14T01:18:18.412Z,95984.72
2023-08-14T01:19:27.326Z,95990.69
2023-08-14T01:20:32.415Z,95987.97
2023-08-14T01:21:49.099Z,95980.06
2023-08-14T01:23:22.583Z,95978.81
2023-08-14T01:24:39.144Z,95970.47
2023-08-14T01:25:41.629Z,95963.31
2023-08-14T01:26:43.464Z,95967.19
2023-08-14T01:27:45.421Z,95950.78
2023-08-14T01:28:47.136Z,95953.16
2023-08-14T01:29:56.059Z,95954.31
2023-08-14T01:30:58.139Z,95942.00
2023-08-14T01:31:59.814Z,95939.50
2023-08-14T01:33:02.049Z,95942.75
2023-08-14T01:34:04.258Z,95944.81
2023-08-14T01:35:06.463Z,95940.78
2023-08-14T01:36:23.365Z,95939.66
2023-08-14T01:37:42.084Z,95940.78
2023-08-14T01:38:49.994Z,95946.78
2023-08-14T01:39:54.718Z,95939.19
2023-08-14T01:41:22.584Z,95943.13
2023-08-14T01:42:31.337Z,95948.50
2023-08-14T01:43:36.032Z,95950.38
2023-08-14T01:44:40.957Z,95956.44
2023-08-14T01:45:42.715Z,95946.28
2023-08-14T01:46:45.040Z,95943.91
2023-08-14T01:47:46.546Z,95955.72
2023-08-14T01:48:50.574Z,95964.78
2023-08-14T01:49:53.558Z,95949.09
2023-08-14T01:50:56.520Z,95950.44
2023-08-14T01:51:59.126Z,95966.41
2023-08-14T01:53:02.315Z,95965.94
2023-08-14T01:54:04.162Z,95964.31
2023-08-14T01:55:06.256Z,95964.53
2023-08-14T01:56:07.895Z,95966.53
2023-08-14T01:57:09.569Z,95962.25
2023-08-14T01:58:11.286Z,95975.38
2023-08-14T01:59:12.942Z,95983.31
2023-08-14T02:00:15.014Z,95978.53
2023-08-14T02:01:18.832Z,95979.38
2023-08-14T02:02:20.766Z,95992.09
2023-08-14T02:03:22.876Z,95999.22
2023-08-14T02:04:24.526Z,96025.28
2023-08-14T02:05:26.072Z,96012.47
2023-08-14T02:06:27.676Z,96002.97
2023-08-14T02:07:29.311Z,96022.31
2023-08-14T02:08:30.876Z,96012.81
2023-08-14T02:09:35.782Z,96017.97
2023-08-14T02:10:37.372Z,96007.34
2023-08-14T02:11:40.523Z,96005.00
2023-08-14T02:12:42.288Z,95995.50
2023-08-14T02:13:43.867Z,95992.75
2023-08-14T02:14:45.439Z,95994.78
2023-08-14T02:15:47.632Z,95989.66
2023-08-14T02:16:49.850Z,95992.81
2023-08-14T02:17:51.794Z,95980.91
2023-08-14T02:18:53.676Z,95974.56
2023-08-14T02:19:56.109Z,95977.78
2023-08-14T02:20:57.946Z,95973.81
2023-08-14T02:21:59.592Z,95973.06
2023-08-14T02:23:01.234Z,95971.53
2023-08-14T02:24:02.825Z,95964.34
2023-08-14T02:25:06.145Z,95961.94
2023-08-14T02:26:07.778Z,95959.59
2023-08-14T02:27:09.387Z,95960.84
2023-08-14T02:28:11.888Z,95953.34
2023-08-14T02:29:13.504Z,95957.59
2023-08-14T02:30:15.089Z,95950.44
2023-08-14T02:31:16.707Z,95948.06
2023-08-14T02:32:18.566Z,95942.13
2023-08-14T02:33:23.092Z,95945.72
2023-08-14T02:34:47.929Z,95933.84
2023-08-14T02:35:49.531Z,95939.44
2023-08-14T02:36:51.101Z,95927.56
2023-08-14T02:37:52.817Z,95926.69
2023-08-14T02:38:55.248Z,95921.53
2023-08-14T02:39:56.828Z,95932.22
2023-08-14T02:40:58.488Z,95926.25
2023-08-14T02:42:00.089Z,95921.13
2023-08-14T02:43:03.634Z,95916.28
2023-08-14T02:44:05.458Z,95915.00
2023-08-14T02:45:07.782Z,95905.97
2023-08-14T02:46:09.443Z,95903.56
2023-08-14T02:47:11.190Z,95900.81
2023-08-14T02:48:12.860Z,95899.56
2023-08-14T02:49:14.437Z,95900.41
2023-08-14T02:50:16.146Z,95890.78
2023-08-14T02:51:18.085Z,95886.44
2023-08-14T02:52:19.947Z,95886.44
2023-08-14T02:53:21.689Z,95893.94
2023-08-14T02:54:23.346Z,95892.69
2023-08-14T02:55:25.948Z,95899.03
2023-08-14T02:56:27.591Z,95891.13
2023-08-14T02:57:29.178Z,95891.00
2023-08-14T02:58:31.858Z,95891.81
2023-08-14T02:59:35.047Z,95896.94
2023-08-14T03:00:36.657Z,95897.69
2023-08-14T03:01:38.386Z,95891.41
2023-08-14T03:02:40.235Z,95895.00
2023-08-14T03:03:41.984Z,95898.09
2023-08-14T03:04:43.660Z,95894.84
2023-08-14T03:05:45.717Z,95895.34
2023-08-14T03:06:47.365Z,95895.84
2023-08-14T03:07:48.964Z,95889.88
2023-08-14T03:08:51.330Z,95884.41
2023-08-14T03:09:53.219Z,95890.38
2023-08-14T03:10:55.181Z,95880.31
2023-08-14T03:11:56.788Z,95883.50
2023-08-14T03:12:58.684Z,95872.25
2023-08-14T03:14:00.383Z,95876.94
2023-08-14T03:15:02.091Z,95878.00
2023-08-14T03:16:03.934Z,95881.72
2023-08-14T03:17:05.580Z,95876.13
2023-08-14T03:18:07.362Z,95875.34
2023-08-14T03:19:08.971Z,95889.19
2023-08-14T03:20:11.091Z,95882.97
2023-08-14T03:21:13.166Z,95882.41
2023-08-14T03:22:14.766Z,95879.03
2023-08-14T03:23:17.811Z,95876.50
2023-08-14T03:24:19.952Z,95884.50
2023-08-14T03:25:23.432Z,95880.09
2023-08-14T03:26:25.080Z,95887.66
2023-08-14T03:27:26.696Z,95893.22
2023-08-14T03:28:28.920Z,95888.91
2023-08-14T03:29:30.512Z,95888.97
2023-08-14T03:30:32.128Z,95887.38
2023-08-14T03:31:33.731Z,95895.34
2023-08-14T03:32:36.689Z,95894.50
2023-08-14T03:33:39.743Z,95888.13
2023-08-14T03:34:43.778Z,95877.06
2023-08-14T03:35:45.776Z,95880.69
2023-08-14T03:36:49.735Z,95885.50
2023-08-14T03:37:52.894Z,95883.63
2023-08-14T03:38:54.652Z,95888.25
2023-08-14T03:39:56.406Z,95879.94
2023-08-14T03:40:58.661Z,95887.84
2023-08-14T03:42:01.837Z,95890.59
2023-08-14T03:43:03.603Z,95884.75
2023-08-14T03:44:05.504Z,95889.16
2023-08-14T03:45:07.902Z,95881.59
2023-08-14T03:46:10.094Z,95889.06
2023-08-14T03:47:11.726Z,95887.13
2023-08-14T03:48:13.397Z,95894.16
2023-08-14T03:49:16.537Z,95890.47
2023-08-14T03:50:18.130Z,95896.16
2023-08-14T03:51:19.739Z,95904.88
2023-08-14T03:52:21.313Z,95890.06
2023-08-14T03:53:23.214Z,95895.97
2023-08-14T03:54:24.852Z,95899.44
2023-08-14T03:55:26.406Z,95902.22
2023-08-14T03:56:27.984Z,95905.56
2023-08-14T03:57:31.917Z,95912.69
2023-08-14T03:58:33.487Z,95911.25
2023-08-14T03:59:35.093Z,95915.56
2023-08-14T04:00:37.014Z,95915.47
2023-08-14T04:01:39.307Z,95919.03
2023-08-14T04:02:41.024Z,95921.44
2023-08-14T04:03:42.791Z,95928.75
2023-08-14T04:04:44.495Z,95930.56
2023-08-14T04:05:48.570Z,95937.50
2023-08-14T04:06:51.126Z,95955.50
2023-08-14T04:07:52.863Z,95965.69
2023-08-14T04:08:54.508Z,95948.91
2023-08-14T04:09:57.306Z,95940.19
2023-08-14T04:11:00.520Z,95948.88
2023-08-14T04:12:04.425Z,95948.47
2023-08-14T04:13:07.681Z,95956.50
2023-08-14T04:14:11.650Z,95948.69
2023-08-14T04:15:16.800Z,95950.19
2023-08-14T04:16:19.923Z,95945.16
2023-08-14T04:17:22.938Z,95946.88
2023-08-14T04:18:24.803Z,95944.97
2023-08-14T04:19:26.443Z,95942.56
2023-08-14T04:20:28.081Z,95948.09
2023-08-14T04:21:30.696Z,95949.75
2023-08-14T04:22:33.616Z,95953.38
2023-08-14T04:23:36.500Z,95948.66
2023-08-14T04:24:39.537Z,95947.91
2023-08-14T04:25:42.565Z,95940.00
2023-08-14T04:26:45.896Z,95949.59
2023-08-14T04:27:49.555Z,95941.63
2023-08-14T04:28:52.583Z,95950.34
2023-08-14T04:29:54.761Z,95948.34
2023-08-14T04:30:56.426Z,95947.16
2023-08-14T04:32:00.844Z,95940.44
2023-08-14T04:33:04.553Z,95950.66
2023-08-14T04:34:08.904Z,95952.66
2023-08-14T04:35:13.473Z,95945.63
2023-08-14T04:36:16.029Z,95946.84
2023-08-14T04:37:17.656Z,95949.63
2023-08-14T04:38:19.223Z,95946.47
2023-08-14T04:39:23.667Z,95945.75
2023-08-14T04:40:26.650Z,95944.94
2023-08-14T04:41:28.576Z,95938.19
2023-08-14T04:42:33.444Z,95941.72
2023-08-14T04:43:35.773Z,95933.06
2023-08-14T04:44:37.546Z,95940.25
2023-08-14T04:45:39.281Z,95940.66
2023-08-14T04:46:57.518Z,95941.06
2023-08-14T04:48:01.477Z,95949.78
2023-08-14T04:49:04.291Z,95943.34
2023-08-14T04:50:06.751Z,95944.91
2023-08-14T04:51:08.264Z,95945.28
2023-08-14T04:52:09.912Z,95947.72
2023-08-14T04:53:13.053Z,95941.72
2023-08-14T04:54:15.772Z,95947.22
2023-08-14T04:55:17.569Z,95952.38
2023-08-14T04:56:19.294Z,95953.09
2023-08-14T04:57:20.883Z,95955.44
2023-08-14T04:58:22.521Z,95953.75
2023-08-14T04:59:24.275Z,95961.75
2023-08-14T05:00:27.320Z,95956.63
2023-08-14T05:01:28.999Z,95953.75
2023-08-14T05:02:32.749Z,95958.22
2023-08-14T05:03:37.301Z,95957.03
2023-08-14T05:04:39.393Z,95954.34
2023-08-14T05:05:41.054Z,95956.34
2023-08-14T05:06:42.723Z,95954.03
2023-08-14T05:07:44.285Z,95959.22
2023-08-14T05:08:45.845Z,95962.38
2023-08-14T05:09:49.507Z,95959.19
2023-08-14T05:10:52.307Z,95957.63
2023-08-14T05:11:53.999Z,95959.94
2023-08-14T05:12:56.700Z,95964.75
2023-08-14T05:14:00.799Z,95969.94
2023-08-14T05:15:04.721Z,95963.13
2023-08-14T05:16:08.885Z,95961.56
2023-08-14T05:17:12.244Z,95960.03
2023-08-14T05:18:14.766Z,95964.03
2023-08-14T05:19:16.430Z,95966.41
2023-08-14T05:20:18.072Z,95972.72
2023-08-14T05:21:20.282Z,95971.19
2023-08-14T05:22:23.117Z,95960.81
2023-08-14T05:23:24.695Z,95966.44
2023-08-14T05:24:26.411Z,95973.19
2023-08-14T05:25:28.313Z,95958.50
2023-08-14T05:26:29.997Z,95956.47
2023-08-14T05:27:37.873Z,95956.41
2023-08-14T05:28:39.509Z,95967.13
2023-08-14T05:29:41.110Z,95969.22
2023-08-14T05:30:46.632Z,95963.50
2023-08-14T05:31:48.398Z,95961.41
2023-08-14T05:32:50.048Z,95970.19
2023-08-14T05:33:51.654Z,95959.06
2023-08-14T05:34:53.207Z,95958.25
2023-08-14T05:35:55.822Z,95965.06
2023-08-14T05:36:57.724Z,95963.94
2023-08-14T05:38:00.365Z,95961.50
2023-08-14T05:39:02.019Z,95959.06
2023-08-14T05:40:05.366Z,95956.75
2023-08-14T05:41:06.981Z,95959.13
2023-08-14T05:42:08.539Z,95963.94
2023-08-14T05:43:13.439Z,95966.25
2023-08-14T05:44:15.027Z,95969.44
2023-08-14T05:45:16.643Z,95967.09
2023-08-14T05:46:20.100Z,95965.06
2023-08-14T05:47:21.697Z,95971.53
2023-08-14T05:48:23.644Z,95972.78
2023-08-14T05:49:25.286Z,95971.25
2023-08-14T05:50:28.210Z,95968.09
2023-08-14T05:51:29.849Z,95975.63
2023-08-14T05:52:31.438Z,95973.25
2023-08-14T05:53:33.078Z,95972.16
2023-08-14T05:54:34.669Z,95974.41
2023-08-14T05:55:40.086Z,95975.75
2023-08-14T05:56:41.674Z,95976.94
2023-08-14T05:57:43.242Z,95974.94
2023-08-14T05:58:44.847Z,95969.81
2023-08-14T05:59:47.170Z,95974.13
2023-08-14T06:00:48.683Z,95971.84
2023-08-14T06:01:50.353Z,95966.69
2023-08-14T06:02:53.194Z,95967.50
2023-08-14T06:03:56.054Z,95967.13
2023-08-14T06:04:57.938Z,95971.84
2023-08-14T06:05:59.560Z,95965.94
2023-08-14T06:07:01.849Z,95960.41
2023-08-14T06:08:04.946Z,95957.63
2023-08-14T06:09:07.657Z,95954.84
2023-08-14T06:10:09.567Z,95954.88
2023-08-14T06:11:11.121Z,95951.31
2023-08-14T06:12:12.689Z,95956.47
2023-08-14T06:13:14.264Z,95957.28
2023-08-14T06:14:15.835Z,95961.66
2023-08-14T06:15:19.845Z,95958.09
2023-08-14T06:16:21.499Z,95965.66
2023-08-14T06:17:23.248Z,95958.13
2023-08-14T06:18:25.331Z,95964.13
2023-08-14T06:19:26.955Z,95960.50
2023-08-14T06:20:28.597Z,95967.63
2023-08-14T06:21:30.179Z,95959.34
2023-08-14T06:22:31.758Z,95956.53
2023-08-14T06:23:33.424Z,95961.75
2023-08-14T06:24:35.349Z,95955.38
2023-08-14T06:25:36.932Z,95965.31
2023-08-14T06:26:38.526Z,95958.50
2023-08-14T06:27:41.373Z,95967.63
2023-08-14T06:28:43.079Z,95962.09
2023-08-14T06:29:44.661Z,95963.75
2023-08-14T06:30:46.608Z,95961.75
2023-08-14T06:31:48.330Z,95961.34
2023-08-14T06:32:49.987Z,95956.56
2023-08-14T06:33:52.531Z,95967.69
2023-08-14T06:34:54.659Z,95961.31
2023-08-14T06:35:56.518Z,95958.53
2023-08-14T06:36:58.375Z,95968.38
2023-08-14T06:37:59.975Z,95969.75
2023-08-14T06:39:01.594Z,95972.47
2023-08-14T06:40:04.968Z,95972.50
2023-08-14T06:41:06.588Z,95977.59
2023-08-14T06:42:08.172Z,95976.03
2023-08-14T06:43:09.824Z,95972.00
2023-08-14T06:44:11.870Z,95975.53
2023-08-14T06:45:13.512Z,95973.63
2023-08-14T06:46:15.152Z,95978.28
2023-08-14T06:47:16.786Z,95976.22
2023-08-14T06:48:18.447Z,95979.25
2023-08-14T06:49:20.152Z,95978.72
2023-08-14T06:50:21.735Z,95975.25
2023-08-14T06:51:23.386Z,95974.69
2023-08-14T06:52:25.170Z,95969.19
2023-08-14T06:53:26.844Z,95970.88
2023-08-14T06:54:28.439Z,95972.16
2023-08-14T06:55:30.019Z,95970.72
2023-08-14T06:56:31.746Z,95980.13
2023-08-14T06:57:33.484Z,95969.88
2023-08-14T06:58:35.279Z,95979.84
2023-08-14T06:59:37.104Z,95968.41
2023-08-14T07:00:38.798Z,95969.22
2023-08-14T07:01:40.412Z,95979.41
2023-08-14T07:02:42.476Z,95975.03
2023-08-14T07:03:44.111Z,95978.75
2023-08-14T07:04:45.796Z,95979.16
2023-08-14T07:05:47.472Z,95980.28
2023-08-14T07:06:49.040Z,95984.59
2023-08-14T07:07:51.271Z,95979.41
2023-08-14T07:08:53.099Z,95988.44
2023-08-14T07:09:54.925Z,95985.00
2023-08-14T07:10:56.528Z,95979.50
2023-08-14T07:11:58.088Z,95980.31
2023-08-14T07:13:00.113Z,95979.31
2023-08-14T07:14:01.700Z,95976.16
2023-08-14T07:15:06.085Z,95972.94
2023-08-14T07:16:08.124Z,95978.31
2023-08-14T07:17:09.986Z,95974.00
2023-08-14T07:18:11.775Z,95964.72
2023-08-14T07:19:13.362Z,95966.25
2023-08-14T07:20:14.974Z,95965.38
2023-08-14T07:21:16.656Z,95974.19
2023-08-14T07:22:18.504Z,95967.38
2023-08-14T07:23:21.412Z,95975.22
2023-08-14T07:24:22.992Z,95976.69
2023-08-14T07:25:25.354Z,95968.50
2023-08-14T07:26:27.810Z,95970.56
2023-08-14T07:27:29.405Z,95972.25
2023-08-14T07:28:31.259Z,95969.13
2023-08-14T07:29:36.301Z,95966.38
2023-08-14T07:30:38.985Z,95962.84
2023-08-14T07:31:40.633Z,95962.56
2023-08-14T07:32:42.197Z,95960.34
2023-08-14T07:33:43.964Z,95963.50
2023-08-14T07:34:45.539Z,95949.91
2023-08-14T07:35:47.160Z,95944.38
2023-08-14T07:36:48.806Z,95944.66
2023-08-14T07:37:50.675Z,95944.31
2023-08-14T07:38:52.220Z,95940.47
2023-08-14T07:39:53.822Z,95936.91
2023-08-14T07:40:56.101Z,95937.88
2023-08-14T07:41:57.700Z,95944.47
2023-08-14T07:42:59.257Z,95941.25
2023-08-14T07:44:00.818Z,95944.75
2023-08-14T07:45:02.438Z,95939.25
2023-08-14T07:46:04.074Z,95935.63
2023-08-14T07:47:05.739Z,95938.91
2023-08-14T07:48:07.423Z,95937.69
2023-08-14T07:49:08.991Z,95942.53
2023-08-14T07:50:11.494Z,95943.75
2023-08-14T07:51:13.139Z,95939.88
2023-08-14T07:52:14.698Z,95942.06
2023-08-14T07:53:17.373Z,95943.75
2023-08-14T07:54:18.970Z,95947.03
2023-08-14T07:55:20.593Z,95946.06
2023-08-14T07:56:22.293Z,95944.47
2023-08-14T07:57:24.949Z,95942.72
2023-08-14T07:58:26.534Z,95948.81
2023-08-14T07:59:28.176Z,95947.69
2023-08-14T08:00:29.847Z,95952.56
2023-08-14T08:01:32.745Z,95950.53
2023-08-14T08:02:34.436Z,95954.53
2023-08-14T08:03:35.990Z,95959.66
2023-08-14T08:04:40.767Z,95955.13
2023-08-14T08:05:43.192Z,95957.97
2023-08-14T08:06:45.024Z,95955.81
2023-08-14T08:07:46.600Z,95964.09
2023-08-14T08:08:48.705Z,95960.25
2023-08-14T08:09:51.292Z,95965.66
2023-08-14T08:10:52.898Z,95963.09
2023-08-14T08:11:56.382Z,95968.56
2023-08-14T08:12:58.063Z,95959.72
2023-08-14T08:14:01.091Z,95967.38
2023-08-14T08:15:02.962Z,95960.44
2023-08-14T08:16:04.684Z,95957.38
2023-08-14T08:17:06.345Z,95957.28
2023-08-14T08:18:07.946Z,95953.88
2023-08-14T08:19:09.494Z,95957.44
2023-08-14T08:20:11.937Z,95958.16
2023-08-14T08:21:13.529Z,95954.81
2023-08-14T08:22:15.827Z,95942.56
2023-08-14T08:23:17.548Z,95940.31
2023-08-14T08:24:20.024Z,95949.38
2023-08-14T08:25:21.774Z,95938.75
2023-08-14T08:26:23.689Z,95948.06
2023-08-14T08:27:25.424Z,95944.47
2023-08-14T08:28:26.965Z,95944.13
2023-08-14T08:29:28.503Z,95938.38
2023-08-14T08:30:30.115Z,95946.47
2023-08-14T08:31:31.864Z,95938.47
2023-08-14T08:32:33.765Z,95945.03
2023-08-14T08:33:35.542Z,95940.81
2023-08-14T08:34:37.225Z,95949.06
2023-08-14T08:35:38.792Z,95943.78
2023-08-14T08:36:40.389Z,95949.16
2023-08-14T08:37:42.642Z,95950.25
2023-08-14T08:38:48.136Z,95946.63
2023-08-14T08:39:49.723Z,95951.91
2023-08-14T08:40:51.738Z,95954.19
2023-08-14T08:41:54.375Z,95949.91
2023-08-14T08:42:56.994Z,95941.09
2023-08-14T08:44:27.643Z,95951.94
2023-08-14T08:45:32.890Z,95937.25
2023-08-14T08:46:37.855Z,95948.78
2023-08-14T08:47:40.734Z,95952.63
2023-08-14T08:48:43.482Z,95951.75
2023-08-14T08:49:45.302Z,95957.81
2023-08-14T08:50:47.118Z,95955.97
2023-08-14T08:51:49.333Z,95956.50
2023-08-14T08:52:51.785Z,95955.59
2023-08-14T08:53:53.509Z,95956.03
2023-08-14T08:54:56.181Z,95951.19
2023-08-14T08:55:58.130Z,95943.00
2023-08-14T08:57:00.663Z,95952.59
2023-08-14T08:58:02.825Z,95955.06
2023-08-14T08:59:04.775Z,95958.31
2023-08-14T09:00:06.826Z,95956.53
2023-08-14T09:01:08.484Z,95954.41
2023-08-14T09:02:10.173Z,95952.22
2023-08-14T09:03:13.757Z,95960.94
2023-08-14T09:04:16.023Z,95953.28
2023-08-14T09:05:17.604Z,95960.59
2023-08-14T09:06:19.175Z,95952.03
2023-08-14T09:07:20.812Z,95956.44
2023-08-14T09:08:22.478Z,95960.47
2023-08-14T09:09:24.379Z,95955.66
2023-08-14T09:10:25.935Z,95954.28
2023-08-14T09:11:28.744Z,95951.47
2023-08-14T09:12:31.307Z,95959.47
2023-08-14T09:13:33.254Z,95959.00
2023-08-14T09:14:34.892Z,95953.97
2023-08-14T09:16:39.556Z,95959.25
2023-08-14T09:17:41.130Z,95960.44
2023-08-14T09:18:46.479Z,95958.75
2023-08-14T09:19:48.632Z,95962.50
2023-08-14T09:20:50.083Z,95966.13
2023-08-14T09:21:51.719Z,95969.19
2023-08-14T09:22:58.396Z,95964.81
2023-08-14T09:24:00.477Z,95971.91
2023-08-14T09:25:02.410Z,95968.28
2023-08-14T09:26:04.021Z,95972.78
2023-08-14T09:27:06.010Z,95965.44
2023-08-14T09:28:09.589Z,95968.38
2023-08-14T09:29:14.286Z,95958.47
2023-08-14T09:30:15.959Z,95963.22
2023-08-14T09:31:17.600Z,95958.00
2023-08-14T09:32:23.885Z,95954.00
2023-08-14T09:33:25.613Z,95954.34
2023-08-14T09:34:28.569Z,95961.22
2023-08-14T09:35:30.213Z,95949.31
2023-08-14T09:36:37.970Z,95954.50
2023-08-14T09:37:41.734Z,95951.03
2023-08-14T09:38:43.750Z,95952.94
2023-08-14T09:39:45.869Z,95959.34
2023-08-14T09:40:47.633Z,95949.44
2023-08-14T09:41:52.396Z,95954.69
2023-08-14T09:42:54.847Z,95951.44
2023-08-14T09:44:00.746Z,95957.97
2023-08-14T09:45:02.740Z,95958.63
2023-08-14T09:46:04.783Z,95961.38
2023-08-14T09:47:06.566Z,95956.13
2023-08-14T09:48:09.329Z,95957.41
2023-08-14T09:49:11.090Z,95957.84
2023-08-14T09:50:16.514Z,95957.34
2023-08-14T09:51:19.500Z,95964.16
2023-08-14T09:52:21.423Z,95963.94
2023-08-14T09:53:23.089Z,95960.78
2023-08-14T09:54:36.100Z,95957.06
2023-08-14T09:55:38.432Z,95958.84
2023-08-14T09:56:40.020Z,95958.22
2023-08-14T09:57:42.279Z,95959.53
2023-08-14T09:58:44.089Z,95954.16
2023-08-14T09:59:45.679Z,95955.25
2023-08-14T10:00:47.775Z,95953.78
2023-08-14T10:01:50.875Z,95956.09
2023-08-14T10:02:52.903Z,95957.13
2023-08-14T10:03:55.411Z,95950.31
2023-08-14T10:04:57.545Z,95950.41
2023-08-14T10:05:59.296Z,95954.31
2023-08-14T10:07:01.629Z,95956.22
2023-08-14T10:08:03.461Z,95949.09
2023-08-14T10:09:05.964Z,95941.75
2023-08-14T10:10:12.345Z,95944.59
2023-08-14T10:12:26.393Z,95952.13
2023-08-14T10:13:28.633Z,95948.94
2023-08-14T10:14:30.180Z,95951.97
2023-08-14T10:15:38.174Z,95951.81
2023-08-14T10:16:41.201Z,95945.50
2023-08-14T10:17:54.399Z,95938.16
2023-08-14T10:18:57.847Z,95930.09
2023-08-14T10:20:02.824Z,95939.47
2023-08-14T10:21:05.672Z,95927.91
2023-08-14T10:22:07.637Z,95930.47
2023-08-14T10:23:09.651Z,95926.31
2023-08-14T10:24:12.756Z,95924.91
2023-08-14T10:25:15.155Z,95930.63
2023-08-14T10:26:17.414Z,95930.69
2023-08-14T10:27:18.928Z,95936.09
2023-08-14T10:28:20.738Z,95923.53
2023-08-14T10:29:22.630Z,95929.47
2023-08-14T10:30:24.491Z,95927.34
2023-08-14T10:31:27.994Z,95921.44
2023-08-14T10:32:30.933Z,95929.91
2023-08-14T10:33:33.802Z,95928.94
2023-08-14T10:34:35.502Z,95928.66
2023-08-14T10:35:51.136Z,95926.13
2023-08-14T10:36:53.424Z,95926.34
2023-08-14T10:38:04.999Z,95929.97
2023-08-14T10:39:18.926Z,95925.19
2023-08-14T10:40:23.326Z,95923.06
2023-08-14T10:41:24.939Z,95921.59
2023-08-14T10:42:26.784Z,95925.28
2023-08-14T10:43:30.057Z,95918.44
2023-08-14T10:44:38.940Z,95921.91
2023-08-14T10:45:40.530Z,95915.44
2023-08-14T10:46:43.082Z,95918.91
2023-08-14T10:47:45.974Z,95913.78
2023-08-14T10:48:49.812Z,95912.94
2023-08-14T10:49:51.836Z,95914.03
2023-08-14T10:51:02.872Z,95909.06
2023-08-14T10:52:04.982Z,95906.41
2023-08-14T10:53:07.166Z,95911.75
2023-08-14T10:54:17.705Z,95906.66
2023-08-14T10:55:35.516Z,95906.91
2023-08-14T10:56:42.469Z,95899.84
2023-08-14T10:57:45.860Z,95895.47
2023-08-14T10:58:51.856Z,95912.53
2023-08-14T10:59:58.053Z,95907.00
2023-08-14T11:01:04.325Z,95903.13
2023-08-14T11:02:16.773Z,95897.31
2023-08-14T11:03:18.497Z,95896.78
2023-08-14T11:04:20.370Z,95905.88
2023-08-14T11:05:24.979Z,95901.63
2023-08-14T11:06:29.555Z,95894.63
2023-08-14T11:07:34.045Z,95902.88
2023-08-14T11:08:37.660Z,95904.31
2023-08-14T11:09:39.971Z,95902.53
2023-08-14T11:10:41.585Z,95909.41
2023-08-14T11:11:48.863Z,95902.94
2023-08-14T11:12:50.947Z,95907.69
2023-08-14T11:13:53.723Z,95906.13
2023-08-14T11:14:57.835Z,95906.28
2023-08-14T11:15:59.572Z,95903.47
2023-08-14T11:17:01.368Z,95912.44
2023-08-14T11:18:06.694Z,95903.09
2023-08-14T11:19:08.360Z,95906.84
2023-08-14T11:20:13.494Z,95900.75
2023-08-14T11:21:30.072Z,95904.00
2023-08-14T11:22:32.863Z,95898.72
2023-08-14T11:23:34.599Z,95900.09
2023-08-14T11:24:38.430Z,95897.69
2023-08-14T11:25:40.566Z,95895.78
2023-08-14T11:26:42.239Z,95892.47
2023-08-14T11:27:55.618Z,95896.78
2023-08-14T11:28:57.288Z,95889.91
2023-08-14T11:30:02.250Z,95892.00
2023-08-14T11:31:04.421Z,95892.75
2023-08-14T11:32:06.350Z,95885.28
2023-08-14T11:33:08.104Z,95892.97
2023-08-14T11:34:09.760Z,95888.00
2023-08-14T11:35:12.344Z,95881.34
2023-08-14T11:36:13.985Z,95890.75
2023-08-14T11:37:16.226Z,95892.38
2023-08-14T11:38:21.015Z,95889.34
2023-08-14T11:39:22.862Z,95893.25
2023-08-14T11:40:25.332Z,95887.78
2023-08-14T11:41:31.499Z,95886.41
2023-08-14T11:42:34.800Z,95884.78
2023-08-14T11:43:40.380Z,95879.00
2023-08-14T11:44:42.552Z,95883.72
2023-08-14T11:45:44.451Z,95876.75
2023-08-14T11:46:47.016Z,95880.16
2023-08-14T11:47:49.933Z,95874.59
2023-08-14T11:48:51.724Z,95883.19
2023-08-14T11:49:53.352Z,95877.88
2023-08-14T11:50:54.960Z,95878.22
2023-08-14T11:51:56.701Z,95868.66
2023-08-14T11:52:58.507Z,95877.69
2023-08-14T11:54:03.877Z,95873.03
2023-08-14T11:55:05.778Z,95868.69
2023-08-14T11:56:07.465Z,95877.84
2023-08-14T11:57:09.501Z,95873.84
2023-08-14T11:58:13.692Z,95865.44
2023-08-14T11:59:16.387Z,95866.44
2023-08-14T12:00:23.770Z,95865.72
2023-08-14T12:01:28.864Z,95857.69
2023-08-14T12:02:30.509Z,95856.69
2023-08-14T12:03:32.290Z,95856.66
2023-08-14T12:04:33.937Z,95855.94
2023-08-14T12:05:35.609Z,95862.84
2023-08-14T12:06:37.320Z,95854.03
2023-08-14T12:07:42.696Z,95858.72
2023-08-14T12:08:44.358Z,95847.59
2023-08-14T12:09:46.051Z,95850.69
2023-08-14T12:10:48.894Z,95854.56
2023-08-14T12:11:51.117Z,95862.50
2023-08-14T12:12:55.877Z,95854.38
2023-08-14T12:13:57.880Z,95850.69
2023-08-14T12:15:00.181Z,95853.97
2023-08-14T12:16:11.953Z,95860.25
2023-08-14T12:17:20.758Z,95852.59
2023-08-14T12:18:23.918Z,95851.63
2023-08-14T12:20:35.169Z,95852.78
2023-08-14T12:21:37.015Z,95849.97
2023-08-14T12:22:40.843Z,95851.28